Time;durP1;ratioP1;P1;durP2;ratioP2;P2;SDS_P1;SDS_P2;PMS_P1;PMS_P2;Temp;Humidity;BMP_temperature;BMP_pressure;BME280_temperature;BME280_humidity;BME280_pressure;Samples;Min_cycle;Max_cycle;Signal;HPM_P1;HPM_P2
2022/03/18 00:00:24;;;;;;;0.70;0.70;;;5.40;63.60;;;4.21;48.06;96385.03;5011676;28;20279;-84
2022/03/18 00:02:53;;;;;;;0.70;0.70;;;5.40;63.70;;;4.18;47.85;96393.91;5012175;28;20201;-84
2022/03/18 00:05:21;;;;;;;0.70;0.70;;;5.30;63.70;;;4.12;47.84;96381.38;5008630;28;20212;-85
2022/03/18 00:07:49;;;;;;;0.70;0.70;;;5.30;63.80;;;4.16;47.96;96393.19;5007365;28;20581;-84
2022/03/18 00:10:17;;;;;;;0.80;0.80;;;5.30;63.90;;;4.10;48.12;96378.91;4999143;28;20217;-84
2022/03/18 00:12:47;;;;;;;0.80;0.80;;;5.30;63.90;;;4.07;48.00;96373.13;5028985;28;20738;-85
2022/03/18 00:15:15;;;;;;;0.70;0.70;;;5.30;64.10;;;4.16;48.32;96391.44;4995557;28;20316;-84
2022/03/18 00:17:43;;;;;;;0.70;0.70;;;5.20;64.00;;;4.20;48.12;96386.81;5026512;28;20235;-85
2022/03/18 00:20:12;;;;;;;0.70;0.70;;;5.30;64.20;;;4.22;48.20;96397.09;5013390;28;20255;-85
2022/03/18 00:22:42;;;;;;;0.70;0.70;;;5.20;64.20;;;4.23;48.51;96391.78;5014801;28;20274;-85
2022/03/18 00:25:15;;;;;;;0.70;0.70;;;5.30;64.30;;;4.21;48.51;96385.03;5029380;28;20232;-85
2022/03/18 00:27:44;;;;;;;0.70;0.70;;;5.30;64.60;;;4.27;48.34;96384.56;5015023;28;20201;-84
2022/03/18 00:30:17;;;;;;;0.70;0.70;;;5.30;64.40;;;4.28;48.50;96388.84;4999392;28;20241;-84
2022/03/18 00:32:45;;;;;;;0.63;0.63;;;5.30;64.30;;;4.29;48.65;96387.91;5014562;28;20287;-84
2022/03/18 00:35:34;;;;;;;0.70;0.70;;;5.30;64.40;;;4.20;48.14;96373.84;5031806;28;20201;-84
2022/03/18 00:38:02;;;;;;;0.60;0.60;;;5.40;64.40;;;4.33;48.31;96387.56;5015235;28;20197;-85
2022/03/18 00:40:30;;;;;;;0.70;0.70;;;5.30;64.30;;;4.32;48.42;96392.84;4998297;28;20283;-84
2022/03/18 00:42:58;;;;;;;0.70;0.70;;;5.30;64.30;;;4.35;48.59;96397.81;5012965;28;20201;-84
2022/03/18 00:45:25;;;;;;;0.80;0.80;;;5.40;64.40;;;4.39;48.34;96391.44;5014928;28;20193;-84
2022/03/18 00:53:24;;;;;;;0.70;0.70;;;5.40;64.40;;;4.41;48.43;96391.34;5012412;28;20243;-84
2022/03/18 00:55:51;;;;;;;0.70;0.70;;;5.50;65.40;;;4.35;48.60;96382.25;5018543;28;20292;-84
2022/03/18 00:58:18;;;;;;;0.80;0.80;;;5.40;64.40;;;4.40;48.41;96395.69;5015709;28;20193;-84
2022/03/18 01:00:45;;;;;;;0.80;0.80;;;5.40;64.50;;;4.43;48.27;96398.06;5012994;28;20205;-84
2022/03/18 01:03:15;;;;;;;0.68;0.68;;;5.40;64.60;;;4.43;48.57;96392.88;4982511;28;20202;-84
2022/03/18 01:05:44;;;;;;;0.70;0.70;;;5.40;64.70;;;4.36;48.59;96383.91;5014826;28;20205;-85
2022/03/18 01:08:11;;;;;;;0.70;0.70;;;5.40;64.50;;;4.43;48.58;96392.88;5000880;28;20201;-84
2022/03/18 01:10:40;;;;;;;0.70;0.70;;;5.50;64.60;;;4.44;48.67;96389.34;5008963;28;20268;-85
2022/03/18 01:13:07;;;;;;;0.70;0.70;;;5.50;64.70;;;4.40;48.75;96374.91;5015729;28;20197;-84
2022/03/18 01:15:34;;;;;;;0.70;0.70;;;5.50;64.70;;;4.47;48.90;96383.91;5017710;28;20205;-84
2022/03/18 01:18:02;;;;;;;0.70;0.70;;;5.50;64.80;;;4.46;48.75;96381.41;5017539;28;20199;-84
2022/03/18 01:20:30;;;;;;;0.70;0.70;;;5.50;64.70;;;4.47;48.83;96380.47;5021686;28;20280;-85
2022/03/18 01:22:57;;;;;;;0.65;0.65;;;5.50;64.80;;;4.49;48.58;96386.38;5014349;28;20259;-84
2022/03/18 01:25:24;;;;;;;0.70;0.70;;;5.50;64.80;;;4.48;49.00;96382.97;5014676;28;20198;-83
2022/03/18 01:27:51;;;;;;;0.60;0.60;;;5.60;64.90;;;4.49;48.85;96383.78;5030827;28;20260;-84
2022/03/18 01:30:18;;;;;;;0.60;0.60;;;5.50;64.80;;;4.51;48.79;96389.69;5013585;28;20351;-84
2022/03/18 01:32:46;;;;;;;0.65;0.65;;;5.50;64.90;;;4.52;48.92;96390.50;5017829;28;20220;-85
2022/03/18 01:35:13;;;;;;;0.70;0.70;;;5.50;65.00;;;4.52;48.86;96396.53;5034467;28;20424;-85
2022/03/18 01:37:40;;;;;;;0.70;0.70;;;5.50;65.00;;;4.47;48.97;96377.88;5013988;28;20198;-85
2022/03/18 01:40:09;;;;;;;0.60;0.60;;;5.50;65.00;;;4.52;49.01;96388.75;4999357;28;20216;-84
2022/03/18 01:42:36;;;;;;;0.70;0.70;;;5.50;65.00;;;4.51;49.14;96394.06;4997753;28;20297;-85
2022/03/18 01:45:04;;;;;;;0.60;0.60;;;5.50;65.10;;;4.52;49.11;96406.09;5006712;28;20288;-84
2022/03/18 01:47:32;;;;;;;0.80;0.80;;;5.50;65.00;;;4.50;49.04;96393.22;4998396;28;20292;-84
2022/03/18 01:50:00;;;;;;;0.70;0.70;;;5.50;65.10;;;4.52;49.28;96396.53;5014399;28;20750;-85
2022/03/18 01:52:27;;;;;;;0.80;0.80;;;5.50;65.10;;;4.48;49.33;96401.13;5014045;28;20323;-84
2022/03/18 01:54:55;;;;;;;0.70;0.70;;;5.50;65.10;;;4.49;49.56;96407.16;5013584;28;20217;-84
2022/03/18 01:57:26;;;;;;;0.60;0.60;;;5.60;65.20;;;4.49;49.45;96412.34;4997546;28;20344;-85
2022/03/18 01:59:56;;;;;;;0.80;0.80;;;5.50;65.20;;;4.35;49.41;96394.41;5013063;28;20220;-85
2022/03/18 02:02:24;;;;;;;0.70;0.70;;;5.50;65.10;;;4.48;49.41;96416.72;5010604;28;20753;-84
2022/03/18 02:04:51;;;;;;;0.70;0.70;;;5.50;65.20;;;4.48;49.25;96413.31;5030147;28;20221;-85
2022/03/18 02:07:19;;;;;;;0.60;0.60;;;5.50;65.20;;;4.47;49.58;96412.47;5019386;28;20205;-82
2022/03/18 02:09:47;;;;;;;0.70;0.70;;;5.50;65.30;;;4.47;49.59;96414.25;4998642;28;20717;-83
2022/03/18 02:12:14;;;;;;;0.70;0.70;;;5.50;65.30;;;4.48;49.12;96419.31;5011436;28;20578;-85
2022/03/18 02:14:46;;;;;;;0.70;0.70;;;5.50;65.30;;;4.47;49.66;96412.47;4997282;28;20218;-84
2022/03/18 02:17:18;;;;;;;0.80;0.80;;;5.50;65.50;;;4.47;49.40;96416.84;5013675;28;20195;-85
2022/03/18 02:19:47;;;;;;;0.70;0.70;;;5.50;65.50;;;4.46;49.35;96413.41;5016864;28;20244;-84
2022/03/18 02:22:23;;;;;;;0.70;0.70;;;5.50;65.30;;;4.44;49.73;96415.31;5016685;28;20211;-84
2022/03/18 02:24:53;;;;;;;0.68;0.68;;;5.50;65.50;;;4.42;49.50;96413.75;5012760;28;20209;-84
2022/03/18 02:27:20;;;;;;;0.70;0.70;;;5.50;65.40;;;4.40;49.79;96408.69;5013015;28;20197;-85
2022/03/18 02:29:48;;;;;;;0.60;0.60;;;5.50;65.40;;;4.36;49.64;96411.63;5016591;28;20209;-84
2022/03/18 02:32:16;;;;;;;0.70;0.70;;;5.50;65.40;;;4.33;49.47;96420.47;5011499;28;20334;-84
2022/03/18 02:34:43;;;;;;;0.60;0.60;;;5.40;65.30;;;4.30;49.64;96423.31;4996963;28;20264;-85
2022/03/18 02:37:11;;;;;;;0.60;0.60;;;5.40;65.40;;;4.23;49.75;96416.94;5013303;28;20193;-85
2022/03/18 02:39:39;;;;;;;0.68;0.68;;;5.40;65.50;;;4.21;49.93;96417.06;5012756;28;20448;-84
2022/03/18 02:42:07;;;;;;;0.65;0.65;;;5.40;65.40;;;4.17;49.69;96418.22;4996623;28;20232;-84
2022/03/18 02:44:34;;;;;;;0.70;0.70;;;5.30;65.40;;;3.97;49.75;96399.75;5012260;28;20224;-84
2022/03/18 02:47:01;;;;;;;0.70;0.70;;;5.30;65.50;;;4.07;50.07;96423.25;5032558;28;20228;-84
2022/03/18 02:49:29;;;;;;;0.80;0.80;;;5.30;65.50;;;4.00;49.87;96428.09;5017729;28;20221;-84
2022/03/18 02:51:56;;;;;;;0.80;0.80;;;5.20;65.50;;;3.98;50.09;96421.38;5012651;28;20217;-84
2022/03/18 02:54:23;;;;;;;0.70;0.70;;;5.20;65.60;;;3.95;50.10;96431.97;5026545;28;20232;-84
2022/03/18 02:56:50;;;;;;;0.70;0.70;;;5.20;65.60;;;3.96;50.15;96431.84;5012923;28;20664;-85
2022/03/18 02:59:17;;;;;;;0.80;0.80;;;5.10;65.60;;;3.90;50.23;96419.31;4996216;28;20232;-83
2022/03/18 03:01:45;;;;;;;0.70;0.70;;;5.10;65.70;;;3.93;50.01;96433.84;5018740;28;20190;-84
2022/03/18 03:04:13;;;;;;;0.80;0.80;;;5.10;65.70;;;3.90;50.10;96442.66;4997296;28;20311;-85
2022/03/18 03:09:28;;;;;;;0.82;0.82;;;5.00;65.70;;;3.77;50.69;96445.34;5029162;28;20220;-84
2022/03/18 03:11:56;;;;;;;0.70;0.70;;;5.00;65.80;;;3.82;50.52;96458.81;4995813;28;20692;-83
2022/03/18 03:14:23;;;;;;;0.70;0.70;;;5.00;65.80;;;3.73;50.35;96448.28;5014807;28;20227;-84
2022/03/18 03:16:51;;;;;;;0.70;0.70;;;4.90;65.80;;;3.73;50.54;96462.06;5015174;28;20199;-84
2022/03/18 03:19:18;;;;;;;0.70;0.70;;;4.90;65.80;;;3.73;50.38;96466.44;5014777;28;20274;-84
2022/03/18 03:21:45;;;;;;;0.70;0.70;;;4.90;65.90;;;3.69;50.29;96466.66;4995933;28;20228;-84
2022/03/18 03:24:13;;;;;;;0.70;0.70;;;4.90;65.90;;;3.66;50.50;96468.63;5023030;28;20252;-84
2022/03/18 03:26:41;;;;;;;0.80;0.80;;;4.80;65.90;;;3.64;50.36;96470.53;5012390;28;20208;-84
2022/03/18 03:29:08;;;;;;;0.80;0.80;;;4.80;66.00;;;3.64;50.89;96478.31;5012079;28;20217;-84
2022/03/18 03:31:35;;;;;;;0.70;0.70;;;4.80;66.10;;;3.50;50.41;96451.59;4995767;28;20239;-84
2022/03/18 03:34:02;;;;;;;0.70;0.70;;;4.80;66.00;;;3.60;50.62;96474.25;4996529;28;20307;-84
2022/03/18 03:36:29;;;;;;;0.70;0.70;;;4.80;66.10;;;3.61;50.68;96481.13;5028141;28;20196;-84
2022/03/18 03:38:58;;;;;;;0.70;0.70;;;4.80;66.20;;;3.59;50.61;96483.81;4989524;28;20584;-84
2022/03/18 03:41:25;;;;;;;0.80;0.80;;;4.70;66.10;;;3.59;50.83;96483.81;5031812;28;20279;-84
2022/03/18 03:43:52;;;;;;;0.60;0.60;;;4.70;66.20;;;3.57;50.52;96496.06;5011455;28;20236;-85
2022/03/18 03:46:19;;;;;;;0.70;0.70;;;4.70;66.20;;;3.52;50.48;96488.59;4995802;28;20709;-84
2022/03/18 03:48:46;;;;;;;0.80;0.80;;;4.70;66.20;;;3.55;50.82;96499.72;5011863;28;20225;-84
2022/03/18 03:51:14;;;;;;;0.70;0.70;;;4.70;66.40;;;3.51;50.97;96496.50;4995921;28;20211;-85
2022/03/18 03:53:41;;;;;;;0.70;0.70;;;4.70;66.40;;;3.52;51.06;96506.75;4996414;28;20233;-85
2022/03/18 03:56:08;;;;;;;0.70;0.70;;;4.70;66.40;;;3.51;50.86;96505.09;5012077;28;20285;-84
2022/03/18 03:58:35;;;;;;;0.80;0.80;;;4.70;66.40;;;3.41;50.99;96498.09;5025685;28;20217;-84
2022/03/18 04:01:04;;;;;;;0.80;0.80;;;4.60;66.50;;;3.45;51.16;96502.13;4995637;28;20208;-84
2022/03/18 04:03:32;;;;;;;0.70;0.70;;;4.60;66.40;;;3.47;51.31;96513.22;5015243;28;20251;-85
2022/03/18 04:05:59;;;;;;;0.70;0.70;;;4.70;66.50;;;3.44;51.04;96513.44;5009152;28;20233;-84
2022/03/18 04:08:27;;;;;;;0.70;0.70;;;4.60;66.40;;;3.36;50.99;96508.78;5011659;28;20226;-84
2022/03/18 04:10:54;;;;;;;0.60;0.60;;;4.60;66.40;;;3.26;51.10;96505.16;4995773;28;20200;-84
2022/03/18 04:13:21;;;;;;;0.80;0.80;;;4.60;66.50;;;3.35;51.13;96526.09;4998445;28;20327;-84
2022/03/18 04:15:48;;;;;;;0.70;0.70;;;4.50;66.40;;;3.33;51.29;96517.63;5014179;28;20193;-83
2022/03/18 04:18:15;;;;;;;0.80;0.80;;;4.50;66.50;;;3.24;51.20;96520.03;5014395;28;20201;-84
2022/03/18 04:20:43;;;;;;;0.70;0.70;;;4.50;66.60;;;3.27;51.15;96525.84;5015382;28;20205;-84
2022/03/18 04:23:10;;;;;;;0.73;0.73;;;4.50;66.70;;;3.27;51.66;96530.16;4998237;28;20201;-84
2022/03/18 04:25:37;;;;;;;0.70;0.70;;;4.50;66.70;;;3.20;51.38;96525.41;5009011;28;20241;-83
2022/03/18 04:28:05;;;;;;;0.80;0.80;;;4.40;66.70;;;3.23;51.47;96532.16;5014728;28;20259;-84
2022/03/18 04:30:32;;;;;;;0.70;0.70;;;4.40;66.80;;;3.21;51.46;96539.22;5019341;28;20212;-84
2022/03/18 04:32:59;;;;;;;0.80;0.80;;;4.40;66.70;;;3.19;51.53;96541.91;5017965;28;20270;-84
2022/03/18 04:35:27;;;;;;;0.80;0.80;;;4.40;66.80;;;3.14;51.74;96532.81;5007657;28;20193;-85
2022/03/18 04:37:54;;;;;;;0.70;0.70;;;4.40;66.90;;;3.07;51.69;96526.38;5011682;28;20208;-84
2022/03/18 04:40:21;;;;;;;0.80;0.80;;;4.40;66.90;;;3.14;51.71;96543.97;5034482;28;20217;-85
2022/03/18 04:42:49;;;;;;;0.70;0.70;;;4.30;66.90;;;3.14;51.87;96548.34;5018798;28;20208;-85
2022/03/18 04:45:16;;;;;;;0.80;0.80;;;4.30;67.00;;;3.16;51.93;96556.84;5018627;28;20220;-84
2022/03/18 04:47:43;;;;;;;0.80;0.80;;;4.30;67.00;;;3.01;52.03;96536.19;5016801;28;20606;-85
2022/03/18 04:50:11;;;;;;;0.80;0.80;;;4.30;67.00;;;3.14;51.98;96561.31;5034920;28;20223;-84
2022/03/18 04:52:38;;;;;;;0.80;0.80;;;4.30;67.10;;;3.00;51.69;96544.94;5002060;28;20228;-84
2022/03/18 04:55:07;;;;;;;0.80;0.80;;;4.30;67.10;;;3.10;51.77;96573.66;4995119;28;20221;-84
2022/03/18 04:57:34;;;;;;;0.82;0.82;;;4.30;67.20;;;3.00;51.85;96557.06;5017506;28;20236;-83
2022/03/18 05:00:01;;;;;;;0.70;0.70;;;4.30;67.20;;;3.09;51.98;96576.34;5019786;28;20252;-84
2022/03/18 05:02:29;;;;;;;0.70;0.70;;;4.30;68.10;;;3.04;52.13;96574.88;4984755;28;20244;-85
2022/03/18 05:04:56;;;;;;;0.80;0.80;;;4.20;67.20;;;3.01;52.14;96566.50;4998430;28;20213;-84
2022/03/18 05:07:25;;;;;;;0.80;0.80;;;4.20;67.20;;;3.00;52.26;96570.84;5010722;28;20201;-84
2022/03/18 05:09:54;;;;;;;0.70;0.70;;;4.30;67.30;;;2.88;52.09;96571.66;4997901;28;20217;-84
2022/03/18 05:12:22;;;;;;;0.70;0.70;;;4.20;67.30;;;3.01;51.97;96588.03;5014224;28;20221;-84
2022/03/18 05:14:53;;;;;;;0.70;0.70;;;4.20;67.30;;;3.02;52.29;96599.25;4998529;28;20225;-84
2022/03/18 05:17:20;;;;;;;0.70;0.70;;;4.20;67.40;;;3.01;52.56;96605.38;5015329;28;20189;-84
2022/03/18 05:19:48;;;;;;;0.80;0.80;;;4.20;67.40;;;3.00;52.52;96606.31;5016831;28;20212;-83
2022/03/18 05:22:15;;;;;;;0.80;0.80;;;4.20;67.50;;;2.98;52.45;96601.22;5017864;28;20216;-85
2022/03/18 05:24:42;;;;;;;0.70;0.70;;;4.20;67.50;;;3.00;52.26;96612.34;5016383;28;20690;-84
2022/03/18 05:27:09;;;;;;;0.70;0.70;;;4.20;67.60;;;3.00;52.74;96612.34;5017436;28;20201;-84
2022/03/18 05:29:36;;;;;;;0.70;0.70;;;4.20;67.70;;;3.01;52.60;96611.38;5017541;28;20227;-84
2022/03/18 05:32:04;;;;;;;0.80;0.80;;;4.20;67.70;;;3.00;52.74;96608.91;5017688;28;20220;-84
2022/03/18 05:34:32;;;;;;;0.70;0.70;;;4.20;67.80;;;3.04;52.75;96618.97;5017242;28;20220;-84
2022/03/18 05:36:59;;;;;;;0.70;0.70;;;4.20;67.80;;;3.06;52.47;96623.22;5001277;28;20633;-84
2022/03/18 05:39:26;;;;;;;0.70;0.70;;;4.20;67.80;;;3.08;52.64;96624.78;4993391;28;20256;-84
2022/03/18 05:41:54;;;;;;;0.80;0.80;;;4.20;67.80;;;3.07;52.51;96633.47;4997962;28;20255;-84
2022/03/18 05:44:21;;;;;;;0.80;0.80;;;4.20;67.90;;;3.10;52.75;96630.69;5018801;28;20617;-84
2022/03/18 05:46:49;;;;;;;0.70;0.70;;;4.20;67.90;;;3.10;52.67;96645.41;5028592;28;20717;-84
2022/03/18 05:49:17;;;;;;;0.88;0.88;;;4.20;68.00;;;3.14;52.90;96645.09;5014012;28;20229;-84
2022/03/18 05:51:46;;;;;;;0.70;0.70;;;4.20;68.00;;;3.15;52.85;96646.75;4982045;28;20275;-84
2022/03/18 05:54:13;;;;;;;0.70;0.70;;;4.20;68.10;;;3.19;52.89;96648.22;5011736;28;20290;-84
2022/03/18 05:56:53;;;;;;;0.80;0.80;;;4.20;68.10;;;3.23;52.93;96654.03;5017458;28;20291;-85
2022/03/18 05:59:26;;;;;;;0.60;0.60;;;4.30;68.20;;;3.18;52.89;96643.94;5018860;28;20220;-84
2022/03/18 06:01:56;;;;;;;0.80;0.80;;;4.30;68.30;;;3.28;52.82;96657.13;5017520;28;20201;-84
2022/03/18 06:04:25;;;;;;;0.70;0.70;;;4.30;68.40;;;3.36;52.87;96656.63;5016968;28;20217;-84
2022/03/18 06:06:53;;;;;;;0.68;0.68;;;4.30;68.40;;;3.38;53.05;96665.13;5016939;28;20239;-85
2022/03/18 06:12:07;;;;;;;0.60;0.60;;;4.40;68.50;;;3.43;52.95;96654.44;5019434;28;20192;-85
2022/03/18 06:14:34;;;;;;;0.70;0.70;;;4.40;68.50;;;3.57;53.07;96679.47;5017118;28;20307;-85
2022/03/18 06:17:04;;;;;;;0.60;0.60;;;4.50;68.70;;;3.54;53.27;96667.53;5017162;28;20200;-84
2022/03/18 06:19:33;;;;;;;0.70;0.70;;;4.50;68.90;;;3.73;53.40;96681.84;5033426;28;20212;-85
2022/03/18 06:22:01;;;;;;;0.70;0.70;;;4.60;69.00;;;3.89;53.43;96689.38;5033068;28;20236;-85
2022/03/18 06:24:29;;;;;;;0.70;0.70;;;4.60;69.10;;;3.98;53.27;96681.78;5016791;28;20270;-85
2022/03/18 06:26:57;;;;;;;0.65;0.65;;;4.70;69.30;;;4.13;53.22;96679.88;5016505;28;20196;-84
2022/03/18 06:29:24;;;;;;;0.60;0.60;;;4.80;69.30;;;4.26;53.45;96685.06;5033040;28;20255;-84
2022/03/18 06:31:51;;;;;;;0.60;0.60;;;4.90;69.40;;;4.39;53.34;96686.78;5016746;28;20200;-84
2022/03/18 06:34:22;;;;;;;0.50;0.50;;;4.90;69.40;;;4.52;53.24;96686.72;5016562;28;20234;-84
2022/03/18 06:36:52;;;;;;;0.65;0.65;;;5.00;69.50;;;4.60;53.24;96684.41;5017119;28;20666;-85
2022/03/18 06:39:20;;;;;;;0.70;0.70;;;5.20;69.60;;;4.75;53.47;96698.91;5032840;28;20702;-84
2022/03/18 06:41:47;;;;;;;0.70;0.70;;;5.30;69.60;;;4.88;53.28;96703.19;5016208;28;20200;-85
2022/03/18 06:44:15;;;;;;;0.70;0.70;;;5.40;69.60;;;4.97;53.39;96705.97;5031900;28;20585;-85
2022/03/18 06:46:42;;;;;;;0.60;0.60;;;5.50;69.70;;;5.08;53.61;96704.34;5016384;28;20570;-85
2022/03/18 06:49:11;;;;;;;0.60;0.60;;;5.60;69.60;;;5.15;53.30;96702.97;5000504;28;20670;-85
2022/03/18 06:51:39;;;;;;;0.60;0.60;;;5.70;69.60;;;5.30;53.05;96716.59;5032876;28;20279;-85
2022/03/18 06:54:06;;;;;;;0.60;0.60;;;5.80;69.60;;;5.39;53.18;96722.88;5032582;28;20228;-85
2022/03/18 06:56:34;;;;;;;0.60;0.60;;;5.90;69.70;;;5.47;53.21;96723.16;5016404;28;20192;-85
2022/03/18 06:59:01;;;;;;;0.60;0.60;;;5.90;69.60;;;5.57;53.18;96726.69;5032361;28;20212;-85
2022/03/18 07:01:28;;;;;;;0.60;0.60;;;6.10;69.60;;;5.67;53.18;96731.22;5016244;28;20255;-85
2022/03/18 07:03:56;;;;;;;0.60;0.60;;;6.20;69.60;;;5.72;52.89;96724.69;5016126;28;20225;-85
2022/03/18 07:06:23;;;;;;;0.60;0.60;;;6.20;69.60;;;5.86;53.24;96733.25;5032223;28;20251;-84
2022/03/18 07:08:50;;;;;;;0.70;0.70;;;6.30;69.50;;;5.92;53.32;96727.59;5032012;28;20691;-85
2022/03/18 07:11:19;;;;;;;0.70;0.70;;;6.40;69.60;;;5.96;53.13;96723.78;5015974;28;20200;-85
2022/03/18 07:13:46;;;;;;;0.60;0.60;;;6.50;69.60;;;6.05;53.17;96730.94;5015999;28;20220;-84
2022/03/18 07:19:00;;;;;;;0.70;0.70;;;6.70;69.60;;;6.32;52.74;96741.94;5031992;28;20224;-85
2022/03/18 07:21:27;;;;;;;0.80;0.80;;;6.70;69.60;;;6.40;52.92;96750.78;5032083;28;20196;-85
2022/03/18 07:23:55;;;;;;;0.60;0.60;;;6.80;69.60;;;6.49;53.13;96749.25;4999921;28;20249;-85
2022/03/18 07:26:22;;;;;;;0.60;0.60;;;6.90;69.60;;;6.59;53.00;96754.56;5016071;28;20211;-85
2022/03/18 07:28:49;;;;;;;0.70;0.70;;;7.00;69.50;;;6.67;52.59;96753.97;5014758;28;20216;-86
2022/03/18 07:31:17;;;;;;;0.60;0.60;;;7.10;69.60;;;6.74;52.93;96757.75;5000339;28;20229;-86
2022/03/18 07:33:44;;;;;;;0.60;0.60;;;7.10;69.50;;;6.82;52.93;96754.53;4998644;28;20247;-85
2022/03/18 07:36:11;;;;;;;0.63;0.63;;;7.20;69.40;;;6.85;52.95;96744.69;5023337;28;20297;-85
2022/03/18 07:38:38;;;;;;;0.60;0.60;;;7.30;69.50;;;7.04;52.59;96756.22;4995902;28;20225;-86
2022/03/18 07:41:05;;;;;;;0.70;0.70;;;7.40;69.60;;;7.14;52.71;96757.16;4997647;28;20678;-86
2022/03/18 07:43:33;;;;;;;0.70;0.70;;;7.50;69.60;;;7.20;52.29;96756.66;5012253;28;20221;-86
2022/03/18 07:46:00;;;;;;;0.70;0.70;;;7.60;69.60;;;7.28;52.49;96757.81;4996808;28;20199;-86
2022/03/18 07:48:27;;;;;;;0.60;0.60;;;7.70;69.60;;;7.35;52.58;96757.19;5014323;28;20235;-86
2022/03/18 07:50:55;;;;;;;0.60;0.60;;;7.80;69.60;;;7.55;52.33;96765.16;5032225;28;20217;-86
2022/03/18 07:53:22;;;;;;;0.60;0.60;;;7.80;69.50;;;7.62;52.67;96765.50;5015315;28;20714;-86
2022/03/18 07:55:49;;;;;;;0.70;0.70;;;7.90;69.50;;;7.73;52.53;96775.03;5020045;28;20189;-85
2022/03/18 07:58:17;;;;;;;0.60;0.60;;;8.00;69.40;;;7.74;52.33;96768.84;4993071;28;20201;-86
2022/03/18 08:00:44;;;;;;;0.70;0.70;;;8.10;69.40;;;7.89;52.53;96783.25;4999995;28;20197;-86
2022/03/18 08:03:12;;;;;;;0.60;0.60;;;8.20;69.30;;;7.95;52.04;96784.53;5017349;28;20328;-86
2022/03/18 08:05:41;;;;;;;0.60;0.60;;;8.30;69.30;;;8.00;52.27;96783.16;5017556;28;20188;-86
2022/03/18 08:08:09;;;;;;;0.60;0.60;;;8.30;70.20;;;8.05;52.38;96779.34;5018846;28;20200;-86
2022/03/18 08:10:37;;;;;;;0.60;0.60;;;8.40;69.20;;;8.00;52.35;96758.81;5019454;28;20248;-85
2022/03/18 08:13:05;;;;;;;0.60;0.60;;;8.50;69.20;;;8.19;52.22;96781.63;5019021;28;20641;-86
2022/03/18 08:15:33;;;;;;;0.60;0.60;;;8.50;69.20;;;8.14;52.15;96774.16;5015831;28;20213;-86
2022/03/18 08:18:02;;;;;;;0.70;0.70;;;8.60;69.20;;;8.33;52.13;96786.47;5018379;28;20263;-86
2022/03/18 08:20:29;;;;;;;0.50;0.50;;;8.70;69.10;;;8.40;51.85;96788.56;5015451;28;20201;-86
2022/03/18 08:22:56;;;;;;;0.60;0.60;;;8.80;69.30;;;8.46;52.06;96781.06;4999658;28;20209;-86
2022/03/18 08:25:25;;;;;;;0.60;0.60;;;8.80;69.20;;;8.56;52.02;96788.13;5010031;28;20201;-87
2022/03/18 08:27:52;;;;;;;0.50;0.50;;;8.80;69.00;;;8.62;52.20;96791.03;5031614;28;20288;-85
2022/03/18 08:30:19;;;;;;;0.50;0.50;;;8.90;69.10;;;8.69;51.87;96795.72;5018997;28;20259;-86
2022/03/18 08:32:46;;;;;;;0.60;0.60;;;9.10;69.10;;;8.76;51.83;96796.84;5019181;28;20742;-87
2022/03/18 08:35:14;;;;;;;0.52;0.52;;;9.10;69.20;;;8.81;51.82;96798.13;5033134;28;20224;-86
2022/03/18 08:37:57;;;;;;;0.50;0.50;;;9.10;69.10;;;8.90;51.82;96808.72;5022346;28;20199;-85
2022/03/18 08:40:30;;;;;;;0.50;0.50;;;9.20;69.00;;;8.96;51.83;96801.16;5017728;28;20675;-86
2022/03/18 08:42:58;;;;;;;0.50;0.50;;;9.20;69.00;;;9.05;51.79;96806.56;5032556;28;20181;-87
2022/03/18 08:45:27;;;;;;;0.60;0.60;;;9.30;69.00;;;9.07;51.88;96797.63;5002639;28;20204;-87
2022/03/18 08:47:55;;;;;;;0.60;0.60;;;9.40;69.00;;;9.21;51.69;96806.84;5018934;28;20209;-87
2022/03/18 08:50:23;;;;;;;0.60;0.60;;;9.40;69.00;;;9.33;51.58;96811.97;5018724;28;20270;-87
2022/03/18 08:52:53;;;;;;;0.50;0.50;;;9.50;69.00;;;9.42;51.36;96819.84;5019066;28;20259;-87
2022/03/18 08:55:21;;;;;;;0.60;0.60;;;9.60;69.10;;;9.53;51.76;96811.03;5000804;28;20217;-86
2022/03/18 08:57:50;;;;;;;0.60;0.60;;;9.70;69.20;;;9.57;51.70;96804.53;5002046;28;20221;-87
2022/03/18 09:00:19;;;;;;;0.70;0.70;;;9.80;69.10;;;9.63;51.29;96810.19;5018551;28;20271;-86
2022/03/18 09:02:47;;;;;;;0.60;0.60;;;9.90;69.10;;;9.80;51.42;96817.31;5018288;28;20262;-87
2022/03/18 09:05:18;;;;;;;0.70;0.70;;;9.90;69.00;;;9.90;51.37;96823.41;5015455;28;20227;-86
2022/03/18 09:07:45;;;;;;;0.70;0.70;;;10.00;67.80;;;10.00;51.34;96817.31;5014275;28;20204;-87
2022/03/18 09:10:12;;;;;;;0.60;0.60;;;10.10;67.70;;;9.96;51.31;96816.78;5018395;28;20274;-87
2022/03/18 09:12:55;;;;;;;0.60;0.60;;;10.20;67.60;;;10.07;51.14;96829.72;5034744;28;20646;-86
2022/03/18 09:15:22;;;;;;;0.55;0.55;;;10.30;67.60;;;10.15;51.71;96823.75;5012518;28;20244;-86
2022/03/18 09:17:49;;;;;;;0.60;0.60;;;10.30;67.60;;;10.29;51.08;96840.00;5018390;28;20192;-87
2022/03/18 09:20:17;;;;;;;0.60;0.60;;;10.40;67.50;;;10.39;51.25;96838.25;5018273;28;20690;-87
2022/03/18 09:22:44;;;;;;;0.70;0.70;;;10.60;67.60;;;10.47;50.94;96837.50;5015729;28;20295;-86
2022/03/18 09:25:12;;;;;;;0.70;0.70;;;10.50;67.50;;;10.57;51.39;96838.31;5015628;28;20255;-86
2022/03/18 09:27:39;;;;;;;0.60;0.60;;;10.70;67.60;;;10.67;50.97;96840.91;5015774;28;20528;-86
2022/03/18 09:30:10;;;;;;;0.60;0.60;;;10.70;68.50;;;10.78;51.04;96839.88;5018261;28;20354;-86
2022/03/18 09:32:40;;;;;;;0.70;0.70;;;10.80;67.60;;;10.81;50.96;96826.47;5033393;28;20231;-86
2022/03/18 09:35:11;;;;;;;0.63;0.63;;;10.90;67.50;;;10.95;50.84;96836.47;5014343;28;20233;-87
2022/03/18 09:37:39;;;;;;;0.60;0.60;;;11.00;67.40;;;11.09;50.80;96842.22;4998209;28;20264;-85
2022/03/18 09:40:08;;;;;;;0.60;0.60;;;11.10;67.50;;;11.21;50.71;96843.66;5014364;28;20247;-86
2022/03/18 09:43:07;;;;;;;0.60;0.60;;;11.20;67.40;;;11.33;50.54;96846.91;4999866;28;20208;-86
2022/03/18 09:45:37;;;;;;;0.60;0.60;;;11.30;67.50;;;11.41;50.44;96843.53;4996343;28;20200;-86
2022/03/18 09:48:09;;;;;;;0.50;0.50;;;11.40;67.30;;;11.42;50.66;96834.69;5010256;28;20208;-86
2022/03/18 09:50:42;;;;;;;0.60;0.60;;;11.50;68.30;;;11.63;50.65;96850.13;4998081;28;20236;-86
2022/03/18 09:53:14;;;;;;;0.60;0.60;;;11.60;67.30;;;11.76;50.46;96852.41;4999402;28;20581;-85
2022/03/18 09:55:42;;;;;;;0.60;0.60;;;11.70;67.40;;;11.85;50.29;96852.31;4997875;28;20199;-86
2022/03/18 09:58:11;;;;;;;0.60;0.60;;;11.80;67.30;;;11.97;50.16;96847.69;5013535;28;20279;-85
2022/03/18 10:00:38;;;;;;;0.70;0.70;;;12.00;67.20;;;12.07;50.03;96852.84;5013503;28;20225;-85
2022/03/18 10:03:11;;;;;;;0.60;0.60;;;12.00;67.10;;;12.16;49.92;96856.38;5014100;28;20207;-85
2022/03/18 10:05:59;;;;;;;0.60;0.60;;;12.10;66.90;;;12.23;49.83;96865.31;5013818;28;20733;-86
2022/03/18 10:08:35;;;;;;;0.60;0.60;;;12.20;66.60;;;12.31;49.67;96859.25;5012924;28;20224;-86
2022/03/18 10:11:32;;;;;;;0.60;0.60;;;12.30;66.50;;;12.37;49.47;96860.44;5033606;28;20203;-87
2022/03/18 10:14:07;;;;;;;0.50;0.50;;;12.40;66.40;;;12.45;49.30;96871.00;5033357;28;20235;-87
2022/03/18 10:16:45;;;;;;;0.60;0.60;;;12.50;66.50;;;12.37;49.46;96842.03;5031663;28;20246;-87
2022/03/18 10:19:16;;;;;;;0.60;0.60;;;12.50;66.30;;;12.60;49.41;96872.09;5017031;28;20739;-87
2022/03/18 10:22:03;;;;;;;0.55;0.55;;;12.60;66.40;;;12.65;49.18;96863.75;5017013;28;20298;-86
2022/03/18 10:24:34;;;;;;;0.70;0.70;;;12.70;66.00;;;12.72;48.78;96875.28;5033040;28;20219;-86
2022/03/18 10:27:28;;;;;;;0.60;0.60;;;12.80;66.00;;;12.75;48.72;96868.88;5002143;28;20194;-87
2022/03/18 10:29:56;;;;;;;0.70;0.70;;;12.80;65.70;;;12.73;49.10;96861.16;5000993;28;20721;-85
2022/03/18 10:32:28;;;;;;;0.60;0.60;;;12.90;66.00;;;12.90;48.46;96880.50;5032994;28;20199;-86
2022/03/18 10:37:51;;;;;;;0.52;0.52;;;13.00;65.70;;;13.05;48.56;96882.50;5031920;28;20211;-87
2022/03/18 10:40:36;;;;;;;0.70;0.70;;;13.10;65.50;;;13.11;48.63;96866.91;5016773;28;20231;-87
2022/03/18 10:43:05;;;;;;;0.70;0.70;;;13.20;65.60;;;13.26;48.41;96882.09;5016705;28;20580;-86
2022/03/18 10:45:34;;;;;;;0.55;0.55;;;13.30;65.70;;;13.33;48.04;96883.13;5002995;28;20286;-86
2022/03/18 10:48:15;;;;;;;0.60;0.60;;;13.30;65.40;;;13.36;47.82;96872.25;4996391;28;20201;-86
2022/03/18 10:50:45;;;;;;;0.40;0.40;;;13.40;65.00;;;13.49;47.88;96884.16;4997258;28;20208;-85
2022/03/18 10:53:13;;;;;;;0.50;0.50;;;13.50;65.30;;;13.57;47.51;96878.91;4996805;28;20199;-87